Flight Track Log - Related Links

Times and Time Zones

All times are in EST time to prevent confusion due to time zone crossing. See the GTI4241 flight status page for this flight to view local times or setup timezone preferences in your user account.

Time Position Orientation Groundspeed Altitude Reporting Facility
EST Latitude Longitude Course Direction KTS MPH feet Rate Location/Type
Mon 05:05:00 PM 58.0441 -14.6668 294° West  Level FlightAware Approximate
Mon 05:06:00 PM 58.0872 -14.8779 291° West  Level FlightAware Approximate
Mon 05:07:00 PM 58.1300 -15.0895 291° West  Level FlightAware Approximate
Mon 05:08:00 PM 58.1724 -15.3017 291° West  Level FlightAware Approximate
Mon 05:09:00 PM 58.2145 -15.5143 291° West  Level FlightAware Approximate
Mon 05:10:00 PM 58.2562 -15.7274 290° West  Level FlightAware Approximate
Mon 05:11:00 PM 58.2976 -15.9411 290° West  Level FlightAware Approximate
Mon 05:12:00 PM 58.3386 -16.1552 290° West  Level FlightAware Approximate
Mon 05:13:00 PM 58.3792 -16.3698 290° West  Level FlightAware Approximate
Mon 05:14:00 PM 58.4195 -16.5850 290° West  Level FlightAware Approximate
Mon 05:15:00 PM 58.4595 -16.8006 290° West  Level FlightAware Approximate
Mon 05:16:00 PM 58.4990 -17.0167 289° West  Level FlightAware Approximate
Mon 05:17:00 PM 58.5382 -17.2333 289° West  Level FlightAware Approximate
Mon 05:18:00 PM 58.5771 -17.4503 289° West  Level FlightAware Approximate
Mon 05:19:00 PM 58.6155 -17.6679 289° West  Level FlightAware Approximate
Mon 05:20:00 PM 58.6536 -17.8859 289° West  Level FlightAware Approximate
Mon 05:21:00 PM 58.6914 -18.1044 288° West  Level FlightAware Approximate
Mon 05:22:00 PM 58.7287 -18.3234 288° West  Level FlightAware Approximate
Mon 05:23:00 PM 58.7657 -18.5428 288° West  Level FlightAware Approximate
Mon 05:24:00 PM 58.8023 -18.7627 288° West  Level FlightAware Approximate
Mon 05:25:00 PM 58.8386 -18.9831 288° West  Level FlightAware Approximate
Mon 05:26:00 PM 58.8744 -19.2039 288° West  Level FlightAware Approximate
Mon 05:27:00 PM 58.9099 -19.4252 287° West  Level FlightAware Approximate
Mon 05:28:00 PM 59.0000 -20.0000 274° West 451 519 34,000  Level ETMS Enhanced Traffic Management System
Mon 06:26:00 PM 59.0000 -30.0000 274° West 430 495 34,000  Level ETMS Enhanced Traffic Management System
Mon 06:55:00 PM 59.0000 -40.0000 263° West 466 536 34,000  Level ETMS Enhanced Traffic Management System
Mon 06:56:00 PM 58.9063 -40.9000 263° West  Level FlightAware Approximate
Mon 06:57:00 PM 58.8918 -41.1300 263° West  Level FlightAware Approximate
Mon 06:58:00 PM 58.8768 -41.3599 263° West  Level FlightAware Approximate
Mon 06:59:00 PM 58.8615 -41.5895 263° West  Level FlightAware Approximate
Mon 07:00:00 PM 58.8457 -41.8189 263° West  Level FlightAware Approximate
Mon 07:01:00 PM 58.8296 -42.0481 262° West  Level FlightAware Approximate
Mon 07:02:00 PM 58.8477 -42.2408 262° West 466 536 34,000  Level FlightAware Transoceanic
Mon 07:03:00 PM 58.8284 -42.4885 261° West 466 536 34,000  Level FlightAware Transoceanic
Mon 07:04:00 PM 58.8086 -42.7360 261° West 466 536 34,000  Level FlightAware Transoceanic
Mon 07:05:00 PM 58.7883 -42.9831 261° West 466 536 34,000  Level FlightAware Transoceanic
Mon 07:06:00 PM 58.7676 -43.2299 261° West 466 536 34,000  Level FlightAware Transoceanic
Mon 07:07:00 PM 58.7464 -43.4765 260° West 466 536 34,000  Level FlightAware Transoceanic
Mon 07:08:00 PM 58.7247 -43.7227 260° West 466 536 34,000  Level FlightAware Transoceanic
Mon 07:09:00 PM 58.7026 -43.9687 260° West 466 536 34,000  Level FlightAware Transoceanic
Mon 07:10:00 PM 58.6800 -44.2143 260° West 466 536 34,000  Level FlightAware Transoceanic
Mon 07:11:00 PM 58.6569 -44.4596 260° West 466 536 34,000  Level FlightAware Transoceanic
Mon 07:12:00 PM 58.6334 -44.7046 259° West 466 536 34,000  Level FlightAware Transoceanic
Mon 07:13:00 PM 58.6094 -44.9492 259° West 466 536 34,000  Level FlightAware Transoceanic
Mon 07:14:00 PM 58.5849 -45.1935 259° West 466 536 34,000  Level FlightAware Transoceanic
Mon 07:15:00 PM 58.5600 -45.4375 259° West 466 536 34,000  Level FlightAware Transoceanic
Mon 07:16:00 PM 58.5346 -45.6810 259° West 466 536 34,000  Level FlightAware Transoceanic
Mon 07:17:00 PM 58.5088 -45.9243 258° West 466 536 34,000  Level FlightAware Transoceanic
Mon 07:18:00 PM 58.4824 -46.1672 258° West 466 536 34,000  Level FlightAware Transoceanic
Mon 07:19:00 PM 58.4557 -46.4097 258° West 466 536 34,000  Level FlightAware Transoceanic
Mon 07:20:00 PM 58.4285 -46.6519 258° West 466 536 34,000  Level FlightAware Transoceanic
Mon 07:21:00 PM 58.4008 -46.8936 258° West 466 536 34,000  Level FlightAware Transoceanic
Mon 07:22:00 PM 58.3726 -47.1350 257° West 466 536 34,000  Level FlightAware Transoceanic
Mon 07:23:00 PM 58.3440 -47.3760 257° West 466 536 34,000  Level FlightAware Transoceanic
Mon 07:24:00 PM 58.3150 -47.6166 257° West 466 536 34,000  Level FlightAware Transoceanic
Mon 07:25:00 PM 58.2855 -47.8568 257° West 466 536 34,000  Level FlightAware Transoceanic
Mon 07:26:00 PM 58.2556 -48.0966 257° West 466 536 34,000  Level FlightAware Transoceanic
Mon 07:27:00 PM 58.2252 -48.3360 256° West 466 536 34,000  Level FlightAware Transoceanic
Mon 07:28:00 PM 58.1943 -48.5750 256° West 466 536 34,000  Level FlightAware Transoceanic
Mon 07:29:00 PM 58.1631 -48.8136 256° West 466 536 34,000  Level FlightAware Transoceanic
Mon 07:30:00 PM 58.1313 -49.0517 256° West 466 536 34,000  Level FlightAware Transoceanic
Mon 07:31:00 PM 58.0992 -49.2895 256° West 466 536 34,000  Level FlightAware Transoceanic
Mon 07:32:00 PM 58.0665 -49.5267 255° West 466 536 34,000  Level FlightAware Transoceanic
Mon 07:33:00 PM 58.0335 -49.7636 255° West 466 536 34,000  Level FlightAware Transoceanic
Mon 07:34:00 PM 58.0026 -49.9819 255° West  Level FlightAware Approximate
Mon 07:35:00 PM 57.9713 -50.1999 255° West  Level FlightAware Approximate
Mon 07:36:00 PM 57.9650 -50.1764 250° West  Level FlightAware Approximate
Mon 07:37:00 PM 57.9227 -50.3874 249° West  Level FlightAware Approximate
Mon 07:38:00 PM 57.8801 -50.5979 249° West  Level FlightAware Approximate
Mon 07:39:00 PM 57.8371 -50.8079 249° West  Level FlightAware Approximate
Mon 07:40:00 PM 57.7938 -51.0174 249° West  Level FlightAware Approximate
Mon 07:41:00 PM 57.7501 -51.2264 249° West  Level FlightAware Approximate
Mon 07:42:00 PM 57.7061 -51.4349 249° West  Level FlightAware Approximate
Mon 07:43:00 PM 57.6617 -51.6429 248° West  Level FlightAware Approximate
Mon 07:44:00 PM 57.6170 -51.8504 248° West  Level FlightAware Approximate
Mon 07:45:00 PM 57.5720 -52.0573 248° West  Level FlightAware Approximate
Mon 07:46:00 PM 57.5266 -52.2638 248° West  Level FlightAware Approximate
Mon 07:47:00 PM 57.4809 -52.4697 248° West  Level FlightAware Approximate
Mon 07:48:00 PM 57.4357 -52.6758 248° West  Level FlightAware Approximate
Mon 07:49:00 PM 57.3906 -52.8817 248° West  Level FlightAware Approximate
Mon 07:50:00 PM 57.3451 -53.0871 248° West  Level FlightAware Approximate
Mon 07:51:00 PM 57.2994 -53.2919 248° West  Level FlightAware Approximate
Mon 07:52:00 PM 57.2533 -53.4963 247° West  Level FlightAware Approximate
Mon 07:53:00 PM 57.2068 -53.7001 247° West  Level FlightAware Approximate
Mon 07:54:00 PM 57.1600 -53.9034 247° West  Level FlightAware Approximate
Mon 07:55:00 PM 57.1129 -54.1062 247° West  Level FlightAware Approximate
Mon 07:56:00 PM 57.0655 -54.3085 247° West  Level FlightAware Approximate
Mon 07:57:00 PM 57.0178 -54.5103 247° West  Level FlightAware Approximate
Mon 07:58:00 PM 58.0000 -50.0000 252° West 422 486 34,000  Level ETMS Enhanced Traffic Management System
Mon 08:14:17 PM 56.5000 -57.3500 270° West 440 506 34,000  Level Gander Center
Mon 08:15:00 PM 56.4605 -57.4877 246° West 422 486 34,000  Level FlightAware Transoceanic
Mon 08:15:17 PM 56.4500 -57.5333 244° Southwest 440 506 34,000  Level Gander Center
Mon 08:16:00 PM 56.4128 -57.6811 246° West 422 486 34,000  Level FlightAware Transoceanic
Mon 08:16:17 PM 56.3833 -57.7500 241° Southwest 430 495 34,000  Level Gander Center
Mon 08:17:00 PM 56.3649 -57.8741 246° West 422 486 34,000  Level FlightAware Transoceanic
Mon 08:17:17 PM 56.3500 -57.9333 252° West 430 495 34,000  Level Gander Center
Mon 08:18:00 PM 56.3137 -58.0609 244° Southwest  Level FlightAware Approximate
Mon 08:18:17 PM 56.2667 -58.1000 228° Southwest 430 495 34,000  Level Gander Center
Mon 08:19:00 PM 56.3167 -58.0594 270° West  Level FlightAware Approximate
Mon 08:19:17 PM 56.1667 -58.2500 220° Southwest 430 495 34,000  Level Gander Center
Mon 08:20:17 PM 56.0833 -58.3833 222° Southwest 430 495 34,000  Level Gander Center
Mon 08:21:17 PM 56.0000 -58.5333 225° Southwest 430 495 34,000  Level Gander Center
Mon 08:22:17 PM 55.9333 -58.6833 232° Southwest 430 495 34,000  Level Gander Center
Mon 08:23:17 PM 55.8333 -58.8500 223° Southwest 430 495 34,000  Level Gander Center
Mon 08:24:17 PM 55.7500 -59.0000 225° Southwest 430 495 34,000  Level Gander Center
Mon 08:25:17 PM 55.6667 -59.1167 218° Southwest 430 495 34,000  Level Gander Center
Mon 08:26:17 PM 55.5667 -59.3000 226° Southwest 430 495 34,000  Level Gander Center
Mon 08:27:17 PM 55.4833 -59.4167 218° Southwest 430 495 34,000  Level Gander Center
Mon 08:28:17 PM 55.4000 -59.5833 229° Southwest 430 495 34,000  Level Gander Center
Mon 08:29:17 PM 55.3000 -59.7333 221° Southwest 430 495 34,000 50 Level Gander Center
Mon 08:30:17 PM 55.2333 -59.8833 232° Southwest 430 495 34,100 850 Climbing Gander Center
Mon 08:31:17 PM 55.1500 -60.0333 226° Southwest 440 506 35,700 1,500 Climbing Gander Center
Mon 08:32:17 PM 55.0500 -60.1500 214° Southwest 430 495 37,100 1,150 Climbing Gander Center
Mon 08:33:17 PM 54.9667 -60.3000 226° Southwest 430 495 38,000 450 Climbing Gander Center
Mon 08:34:17 PM 54.8833 -60.4333 223° Southwest 430 495 38,000  Level Gander Center
Mon 08:35:17 PM 54.7833 -60.5833 221° Southwest 430 495 38,000  Level Gander Center
Mon 08:36:17 PM 54.7000 -60.7333 226° Southwest 440 506 38,000  Level Gander Center
Mon 08:37:17 PM 54.6000 -60.8833 221° Southwest 440 506 38,000  Level Gander Center
Mon 08:38:17 PM 54.5167 -61.0167 223° Southwest 440 506 38,000  Level Gander Center
Mon 08:39:17 PM 54.4333 -61.1667 226° Southwest 440 506 38,000  Level Gander Center
Mon 08:40:17 PM 54.3333 -61.3167 221° Southwest 440 506 38,000  Level Gander Center
Mon 08:41:17 PM 54.2500 -61.4333 219° Southwest 440 506 38,000  Level Gander Center
Mon 08:42:17 PM 54.1500 -61.6000 224° Southwest 440 506 38,000  Level Gander Center
Mon 08:43:17 PM 54.0667 -61.7167 219° Southwest 450 518 38,000  Level Gander Center
Mon 08:44:17 PM 53.9667 -61.8833 224° Southwest 450 518 38,000  Level Gander Center
Mon 08:45:17 PM 53.8833 -61.9833 215° Southwest 450 518 38,000  Level Gander Center
Mon 08:46:17 PM 53.7833 -62.1667 227° Southwest 450 518 38,000  Level Gander Center
Mon 08:47:17 PM 53.7000 -62.2667 215° Southwest 450 518 38,000  Level Gander Center
Mon 08:48:17 PM 53.6000 -62.4167 222° Southwest 440 506 38,000  Level Gander Center
Mon 08:49:17 PM 53.5000 -62.5500 218° Southwest 440 506 38,000  Level Gander Center
Mon 08:50:17 PM 53.4167 -62.6833 224° Southwest 440 506 38,000  Level Gander Center
Mon 08:51:17 PM 53.3167 -62.8167 219° Southwest 440 506 38,000  Level Gander Center
Mon 08:52:17 PM 53.2333 -62.9500 224° Southwest 440 506 38,000  Level Gander Center
Mon 08:53:17 PM 53.1333 -63.1000 222° Southwest 440 506 38,000  Level Gander Center
Mon 08:54:17 PM 53.0500 -63.2333 224° Southwest 440 506 38,000  Level Gander Center
Mon 08:55:17 PM 52.9500 -63.3667 219° Southwest 440 506 38,000  Level Gander Center
Mon 08:56:17 PM 52.8500 -63.5000 219° Southwest 440 506 38,000  Level Gander Center
Mon 08:57:17 PM 52.7500 -63.6333 219° Southwest 440 506 38,000  Level Gander Center
Mon 08:58:17 PM 52.6667 -63.7667 224° Southwest 450 518 38,000  Level Gander Center
Mon 08:59:17 PM 52.5833 -63.9000 224° Southwest 450 518 38,000  Level Gander Center
Mon 09:00:17 PM 52.4833 -64.0333 219° Southwest 450 518 38,000  Level Gander Center
Mon 09:01:17 PM 52.4000 -64.1667 224° Southwest 450 518 38,000  Level Gander Center
Mon 09:02:17 PM 52.2833 -64.2833 211° Southwest 450 518 38,000  Level Gander Center
Mon 09:03:17 PM 52.1833 -64.4167 219° Southwest 450 518 38,000  Level Gander Center
Mon 09:04:17 PM 52.1000 -64.5500 225° Southwest 450 518 38,000  Level Gander Center
Mon 09:05:17 PM 52.0000 -64.6833 219° Southwest 450 518 38,000  Level Gander Center
Mon 09:06:17 PM 51.9000 -64.8000 216° Southwest 440 506 38,000  Level Gander Center
Mon 09:07:17 PM 51.8000 -64.9333 220° Southwest 440 506 38,000  Level Gander Center
Mon 09:08:17 PM 51.7167 -65.0667 225° Southwest 440 506 38,000  Level Gander Center
Mon 09:09:17 PM 51.6333 -65.1667 217° Southwest 440 506 38,000  Level Gander Center
Mon 09:10:17 PM 51.5167 -65.2833 212° Southwest 440 506 38,000  Level Gander Center
Mon 09:11:17 PM 51.4333 -65.4167 225° Southwest 440 506 38,000  Level Gander Center
Mon 09:12:17 PM 51.3333 -65.5333 216° Southwest 440 506 38,000  Level Gander Center
Mon 09:13:17 PM 51.2333 -65.6667 220° Southwest 440 506 38,000  Level Gander Center
Mon 09:14:17 PM 51.1333 -65.7833 216° Southwest 440 506 38,000  Level Gander Center
Mon 09:15:17 PM 51.0500 -65.9167 225° Southwest 440 506 38,000  Level Gander Center
Mon 09:16:17 PM 50.9500 -66.0333 216° Southwest 440 506 38,000  Level Gander Center
Mon 09:17:17 PM 50.8500 -66.1500 216° Southwest 440 506 38,000  Level Gander Center
Mon 09:18:17 PM 50.7667 -66.2833 225° Southwest 440 506 38,000  Level Gander Center
Mon 09:19:17 PM 50.6667 -66.4000 216° Southwest 440 506 38,000  Level Gander Center
Mon 09:20:17 PM 50.5667 -66.5167 217° Southwest 440 506 38,000  Level Gander Center
Mon 09:21:17 PM 50.4667 -66.6500 220° Southwest 440 506 38,000  Level Gander Center
Mon 09:22:17 PM 50.3833 -66.7333 213° Southwest 440 506 38,000  Level Gander Center
Mon 09:23:17 PM 50.2667 -66.8500 213° Southwest 440 506 38,000  Level Gander Center
Mon 09:24:17 PM 50.1833 -66.9833 226° Southwest 430 495 38,000  Level Gander Center
Mon 09:25:17 PM 50.0833 -67.1000 217° Southwest 440 506 38,000  Level Gander Center
Mon 09:26:17 PM 49.9833 -67.2167 217° Southwest 440 506 38,000  Level Gander Center
Mon 09:27:17 PM 49.9000 -67.3333 222° Southwest 440 506 38,000  Level Gander Center
Mon 09:28:17 PM 49.7833 -67.4500 213° Southwest 440 506 38,000  Level Gander Center
Mon 09:29:17 PM 49.7000 -67.5667 222° Southwest 440 506 38,000  Level Gander Center
Mon 09:30:17 PM 49.5833 -67.6833 213° Southwest 440 506 38,000  Level Gander Center
Mon 09:31:17 PM 49.5000 -67.8000 222° Southwest 440 506 38,000  Level Gander Center
Mon 09:32:17 PM 49.4000 -67.9167 217° Southwest 440 506 38,000  Level Gander Center
Mon 09:33:17 PM 49.3000 -68.0333 217° Southwest 440 506 38,000  Level Gander Center
Mon 09:34:17 PM 49.2000 -68.1500 217° Southwest 440 506 38,000  Level Gander Center
Mon 09:35:17 PM 49.1000 -68.2667 217° Southwest 440 506 38,000  Level Gander Center
Mon 09:36:17 PM 49.0000 -68.3500 209° Southwest 440 506 38,000  Level Gander Center
Mon 09:37:17 PM 48.9000 -68.4667 218° Southwest 440 506 38,000  Level Gander Center
Mon 09:38:17 PM 48.8000 -68.5667 213° Southwest 440 506 38,000  Level Gander Center
Mon 09:39:17 PM 48.7000 -68.6500 209° Southwest 440 506 38,000  Level Gander Center
Mon 09:40:17 PM 48.6000 -68.7667 218° Southwest 440 506 38,000  Level Gander Center
Mon 09:46:01 PM 48.0109 -69.3369 218° Southwest 442 509 38,000  Level FlightAware ADS-B
Mon 09:47:46 PM 47.8239 -69.4981 210° Southwest 446 513 38,000  Level FlightAware ADS-B
Mon 09:48:20 PM 47.7619 -69.5468 208° Southwest 445 512 38,000  Level FlightAware ADS-B
Mon 09:49:07 PM 47.6772 -69.6135 208° Southwest 444 511 38,000  Level FlightAware ADS-B
Mon 09:49:37 PM 47.6286 -69.6504 207° Southwest 442 509 38,000  Level FlightAware ADS-B
Mon 09:50:12 PM 47.5601 -69.7042 208° Southwest 441 507 38,000  Level FlightAware ADS-B
Mon 09:50:51 PM 47.4885 -69.7604 208° Southwest 441 507 38,000  Level FlightAware ADS-B
Mon 09:52:48 PM 47.2792 -69.9230 208° Southwest 441 507 38,000  Level FlightAware ADS-B
Mon 09:53:28 PM 47.2105 -69.9776 208° Southwest 442 509 38,000  Level FlightAware ADS-B
Mon 09:54:01 PM 47.1470 -70.0264 208° Southwest 442 509 38,000  Level FlightAware ADS-B
Mon 09:54:51 PM 47.0560 -70.0961 208° Southwest 442 509 38,000  Level FlightAware ADS-B
Mon 09:55:21 PM 47.0016 -70.1378 208° Southwest 442 509 38,000  Level FlightAware ADS-B
Mon 09:55:52 PM 46.9456 -70.1807 208° Southwest 442 509 38,000  Level FlightAware ADS-B
Mon 09:56:25 PM 46.8882 -70.2249 208° Southwest 442 509 38,000  Level FlightAware ADS-B
Mon 09:56:55 PM 46.8318 -70.2679 208° Southwest 442 509 38,000  Level FlightAware ADS-B
Mon 09:57:37 PM 46.7563 -70.3244 207° Southwest 443 510 38,000  Level FlightAware ADS-B
Mon 09:58:08 PM 46.6994 -70.3684 208° Southwest 443 510 38,000  Level FlightAware ADS-B
Mon 09:58:38 PM 46.6443 -70.4096 207° Southwest 442 509 38,000  Level FlightAware ADS-B
Mon 09:59:15 PM 46.5774 -70.4603 208° Southwest 441 507 38,000  Level FlightAware ADS-B
Mon 10:00:23 PM 46.4562 -70.5512 207° Southwest 440 506 38,000  Level FlightAware ADS-B
Mon 10:00:53 PM 46.3998 -70.5931 207° Southwest 441 507 38,000  Level FlightAware ADS-B
Mon 10:01:26 PM 46.3423 -70.6363 207° Southwest 439 505 38,000  Level FlightAware ADS-B
Mon 10:01:31 PM 46.3310 -70.6440 205° Southwest 440 506 38,000  Level FlightAware ADS-B
Mon 10:01:56 PM 46.2868 -70.6777 208° Southwest 437 503 38,000  Level FlightAware ADS-B
Mon 10:02:26 PM 46.2326 -70.7178 207° Southwest 435 501 38,000  Level FlightAware ADS-B
Mon 10:02:56 PM 46.1790 -70.7577 207° Southwest 436 502 38,000  Level FlightAware ADS-B
Mon 10:03:26 PM 46.1242 -70.7974 207° Southwest 437 503 38,000  Level FlightAware ADS-B
Mon 10:04:08 PM 46.0519 -70.8506 207° Southwest 438 504 38,000  Level FlightAware ADS-B
Mon 10:04:48 PM 45.9768 -70.9062 207° Southwest 438 504 38,000  Level FlightAware ADS-B
Mon 10:05:24 PM 45.9116 -70.9539 207° Southwest 438 504 38,000  Level FlightAware ADS-B
Mon 10:05:55 PM 45.8562 -70.9947 207° Southwest 438 504 38,000  Level FlightAware ADS-B
Mon 10:06:35 PM 45.7844 -71.0473 207° Southwest 437 503 38,000  Level FlightAware ADS-B
Mon 10:07:08 PM 45.7247 -71.0906 207° Southwest 437 503 38,000  Level FlightAware ADS-B
Mon 10:07:48 PM 45.6546 -71.1416 207° Southwest 437 503 38,000  Level FlightAware ADS-B
Mon 10:08:25 PM 45.5859 -71.1911 207° Southwest 438 504 38,000  Level FlightAware ADS-B
Mon 10:08:55 PM 45.5314 -71.2304 207° Southwest 441 507 38,000  Level FlightAware ADS-B
Mon 10:09:25 PM 45.4770 -71.2700 207° Southwest 441 507 38,000  Level FlightAware ADS-B
Mon 10:11:35 PM 45.3224 -71.3810 207° Southwest 442 509 38,000  Level FlightAware ADS-B
Mon 10:12:08 PM 45.1800 -71.4820 207° Southwest 445 512 38,000  Level FlightAware ADS-B
Mon 10:12:12 PM 45.1790 -71.4830 216° Southwest 445 512 38,000  Level FlightAware ADS-B
Mon 10:12:52 PM 45.0985 -71.5403 207° Southwest 444 511 38,000  Level FlightAware ADS-B
Mon 10:12:57 PM 45.0890 -71.5470 207° Southwest 446 513 38,000  Level FlightAware ADS-B
Mon 10:13:33 PM 45.0220 -71.5940 206° Southwest 445 512 38,000  Level FlightAware ADS-B
Mon 10:14:44 PM 44.8940 -71.6840 206° Southwest 441 507 38,000  Level FlightAware ADS-B
Mon 10:15:06 PM 44.8548 -71.7121 207° Southwest 440 506 38,000  Level FlightAware ADS-B (EPKK / KRK)
Mon 10:15:17 PM 44.8340 -71.7260 205° Southwest 441 507 38,000  Level FlightAware ADS-B
Mon 10:16:59 PM 44.6490 -71.8550 206° Southwest 436 502 38,000  Level FlightAware ADS-B
Mon 10:17:11 PM 44.6271 -71.8714 208° Southwest 436 502 38,000  Level FlightAware ADS-B (EPKK / KRK)
Mon 10:17:24 PM 44.6020 -71.8880 205° Southwest 436 502 38,000  Level FlightAware ADS-B
Mon 10:17:42 PM 44.5713 -71.9091 206° Southwest 435 501 38,000  Level FlightAware ADS-B (EPKK / KRK)
Mon 10:18:02 PM 44.5350 -71.9350 207° Southwest 437 503 38,000  Level FlightAware ADS-B
Mon 10:18:18 PM 44.5058 -71.9555 207° Southwest 438 504 38,000  Level FlightAware ADS-B (EPKK / KRK)
Mon 10:18:39 PM 44.4670 -71.9820 206° Southwest 441 507 38,000  Level FlightAware ADS-B
Mon 10:18:49 PM 44.4499 -71.9933 205° Southwest 441 507 38,000  Level FlightAware ADS-B (EPKK / KRK)
Mon 10:19:08 PM 44.4140 -72.0190 207° Southwest 444 511 38,000  Level FlightAware ADS-B
Mon 10:19:39 PM 44.3567 -72.0579 206° Southwest 442 509 38,000  Level FlightAware ADS-B (EPKK / KRK)
Mon 10:19:42 PM 44.3530 -72.0600 202° Southwest 443 510 38,000  Level FlightAware ADS-B
Mon 10:20:12 PM 44.2980 -72.0980 206° Southwest 441 507 38,000  Level FlightAware ADS-B
Mon 10:21:54 PM 44.1110 -72.2260 206° Southwest 445 512 38,000  Level FlightAware ADS-B
Mon 10:22:11 PM 44.0798 -72.2474 206° Southwest 446 513 38,000  Level FlightAware ADS-B (EPKK / KRK)
Mon 10:22:29 PM 44.0460 -72.2700 206° Southwest 446 513 38,000  Level FlightAware ADS-B
Mon 10:23:05 PM 43.9780 -72.3160 206° Southwest 445 512 38,000  Level FlightAware ADS-B
Mon 10:23:35 PM 43.9230 -72.3540 206° Southwest 444 511 38,000  Level FlightAware ADS-B
Mon 10:24:25 PM 43.8935 -72.3739 206° Southwest 433 498 38,000  Level FlightAware ADS-B (EPKK / KRK)
Mon 10:25:45 PM 43.6860 -72.5130 206° Southwest 438 504 38,000  Level FlightAware ADS-B
Mon 10:26:59 PM 43.5520 -72.6030 206° Southwest 439 505 38,000 -340 Level FlightAware ADS-B
Mon 10:28:24 PM 43.4010 -72.7040 206° Southwest 430 495 37,100 -763 Descending FlightAware ADS-B
Mon 10:28:57 PM 43.3410 -72.7440 206° Southwest 424 488 36,500 -1,054 Descending FlightAware ADS-B
Mon 10:29:38 PM 43.2726 -72.7896 206° Southwest 422 486 35,800 -931 Descending FlightAware ADS-B (SBBR / BSB)
Mon 10:29:55 PM 43.2390 -72.8120 206° Southwest 421 484 35,600 -1,050 Descending FlightAware ADS-B
Mon 10:30:18 PM 43.2726 -72.7896 26° Northeast 420 483 35,100 -1,125 Descending FlightAware ADS-B (SBBR / BSB)
Mon 10:30:27 PM 43.1840 -72.8490 206° Southwest 419 482 35,000 -857 Descending FlightAware ADS-B
Mon 10:31:07 PM 43.1140 -72.8940 205° Southwest 415 478 34,400 -896 Descending FlightAware ADS-B
Mon 10:31:34 PM 43.1070 -72.8987 206° Southwest 409 471 34,000 -800 Descending FlightAware ADS-B (SBBR / BSB)
Mon 10:31:37 PM 43.0650 -72.9260 205° Southwest 410 472 34,000 -1,024 Level FlightAware ADS-B
Mon 10:32:15 PM 42.9979 -72.9705 206° Southwest 408 470 33,300 -917 Descending FlightAware ADS-B (SBBR / BSB)
Mon 10:32:49 PM 42.9400 -73.0080 205° Southwest 408 470 32,900 -769 Descending FlightAware ADS-B
Mon 10:33:33 PM 42.8929 -73.0392 206° Southwest 407 468 32,300 -684 Descending FlightAware ADS-B (SBBR / BSB)
Mon 10:34:08 PM 42.8190 -73.0868 205° Southwest 407 468 32,000 -234 Descending FlightAware ADS-B (SBBR / BSB)
Mon 10:34:50 PM 42.7448 -73.1352 206° Southwest 406 467 32,000  Level FlightAware ADS-B (SBBR / BSB)
Mon 10:35:33 PM 42.6647 -73.1869 205° Southwest 405 466 32,000 -359 Level FlightAware ADS-B (SBBR / BSB)
Mon 10:36:47 PM 42.5387 -73.2684 205° Southwest 401 461 31,300 -740 Descending FlightAware ADS-B (SBBR / BSB)
Mon 10:39:12 PM 42.3356 -73.4093 207° Southwest 384 442 29,300 -750 Descending FlightAware ADS-B (KSNC)
Mon 10:39:51 PM 42.2416 -73.4741 207° Southwest 379 436 29,000 -897 Descending FlightAware ADS-B (KSNC)
Mon 10:40:39 PM 42.1677 -73.5259 207° Southwest 374 430 28,000 -531 Descending FlightAware ADS-B (KSNC)
Mon 10:41:44 PM 42.0710 -73.5935 207° Southwest 375 432 28,000  Level FlightAware ADS-B (KSNC)
Mon 10:42:17 PM 42.0168 -73.6309 207° Southwest 374 430 28,000 -273 Level FlightAware ADS-B (KSNC)
Mon 10:43:34 PM 41.9005 -73.7109 207° Southwest 353 406 27,500 -500 Descending FlightAware ADS-B (KSNC)
Mon 10:44:05 PM 41.8561 -73.7413 207° Southwest 340 391 27,100 -1,514 Descending FlightAware ADS-B (KSNC)
Mon 10:45:21 PM 41.7632 -73.8057 207° Southwest 312 359 24,800 -1,623 Descending FlightAware ADS-B (KSNC)
Mon 10:46:07 PM 41.6981 -73.8505 207° Southwest 306 352 23,800 -1,212 Descending FlightAware ADS-B (KSNC)
Mon 10:47:05 PM 41.6270 -73.8992 207° Southwest 300 345 22,700 -1,149 Descending FlightAware ADS-B (KSNC)
Mon 10:47:41 PM 41.6020 -73.9163 207° Southwest 302 348 22,000 -1,086 Descending FlightAware ADS-B (KSNC)
Mon 10:48:50 PM 41.4947 -73.9889 207° Southwest 303 349 20,800 -1,091 Descending FlightAware ADS-B (KSNC)
Mon 10:49:20 PM 41.4562 -74.0138 206° Southwest 309 356 20,200 -608 Descending FlightAware ADS-B (KSNC)
Mon 10:50:09 PM 41.3875 -74.0378 195° South 323 372 20,000 -95 Descending FlightAware ADS-B (KSNC)
Mon 10:51:26 PM 41.2729 -74.0606 189° South 329 379 20,000  Level FlightAware ADS-B (KSNC)
Mon 10:51:58 PM 41.2246 -74.0708 189° South 331 381 20,000 -532 Level FlightAware ADS-B (KSNC)
Mon 10:52:45 PM 41.1553 -74.0853 189° South 324 373 19,300 -659 Descending FlightAware ADS-B (KSNC)
Mon 10:53:29 PM 41.0928 -74.0983 189° South 317 365 19,000 -87 Descending FlightAware ADS-B (KSNC)
Mon 10:56:13 PM 40.8433 -74.0482 171° South 376 433 19,000 -643 Level FlightAware ADS-B (KSNC)
Mon 10:57:13 PM 40.7515 -73.9861 153° Southeast 375 432 16,600 -2,544 Descending FlightAware ADS-B (KSNC)
Mon 10:58:18 PM 40.6714 -73.9367 153° Southeast 363 418 13,700 -1,728 Descending New York Center
Mon 10:59:18 PM 40.5831 -73.8917 159° South 324 373 13,000 -950 Descending New York Center
Mon 11:00:18 PM 40.5028 -73.8525 160° South 314 361 11,800 -3,150 Descending New York Center
Mon 11:01:18 PM 40.4286 -73.8136 158° South 303 349 6,700 -4,350 Descending New York Center
Mon 11:02:18 PM 40.4036 -73.7308 112° Southeast 264 304 3,100 -2,300 Descending New York Center
Mon 11:03:18 PM 40.4389 -73.6561 58° Northeast 192 221 2,100 -500 Descending New York Center
Mon 11:04:18 PM 40.4714 -73.6056 50° Northeast 192 221 2,100  Level New York Center
Mon 11:05:18 PM 40.5150 -73.6183 347° North 141 162 2,100  Level New York Center
Mon 11:06:18 PM 40.5433 -73.6442 325° Northwest 131 151 2,100  Level New York Center
Mon 11:07:18 PM 40.5761 -73.6728 326° Northwest 142 163 2,100 -200 Level New York Center
Mon 11:08:18 PM 40.5942 -73.7008 310° West 124 143 1,700 -629 Descending New York Center
Mon 11:09:41 PM 40.6167 -73.7500 301° West 121 139 600 -795 Descending New York TRACON

Login

Don't have an account? Register now (free) for customized features, flight alerts, and more!